Time;durP1;ratioP1;P1;durP2;ratioP2;P2;SDS_P1;SDS_P2;PMS_P1;PMS_P2;Temp;Humidity;BMP_temperature;BMP_pressure;BME280_temperature;BME280_humidity;BME280_pressure;Samples;Min_cycle;Max_cycle;Signal;HPM_P1;HPM_P2
2023/04/22 00:00:11;;;;;;;1.10;0.80;;;9.60;99.90;;;;;;5030553;28;20933;-51
2023/04/22 00:02:39;;;;;;;1.73;1.00;;;9.70;99.90;;;;;;5030956;28;20469;-53
2023/04/22 00:05:08;;;;;;;1.40;1.10;;;9.60;99.90;;;;;;5031081;28;20465;-51
2023/04/22 00:07:35;;;;;;;1.10;0.90;;;9.60;99.90;;;;;;5030668;28;20902;-53
2023/04/22 00:10:03;;;;;;;2.50;1.33;;;9.50;99.90;;;;;;5030998;28;20538;-51
2023/04/22 00:12:30;;;;;;;1.33;0.90;;;9.20;99.90;;;;;;5030980;28;20625;-51
2023/04/22 00:14:57;;;;;;;2.40;1.10;;;9.30;99.90;;;;;;5035073;28;20440;-51
2023/04/22 00:17:24;;;;;;;1.13;0.80;;;9.50;99.90;;;;;;5035079;28;20530;-52
2023/04/22 00:19:51;;;;;;;1.67;1.40;;;9.50;99.90;;;;;;5034392;28;20452;-52
2023/04/22 00:22:18;;;;;;;2.00;1.10;;;9.50;99.90;;;;;;5034802;28;20462;-51
2023/04/22 00:24:45;;;;;;;1.40;1.10;;;9.40;99.90;;;;;;5034826;28;20478;-53
2023/04/22 00:27:13;;;;;;;1.20;0.90;;;9.40;99.90;;;;;;5034754;28;20564;-51
2023/04/22 00:29:40;;;;;;;1.27;0.87;;;9.40;99.90;;;;;;5034543;28;20478;-51
2023/04/22 00:32:07;;;;;;;1.10;0.90;;;9.40;99.90;;;;;;5034488;28;20489;-51
2023/04/22 00:34:34;;;;;;;1.60;0.90;;;9.40;99.90;;;;;;5034434;28;20522;-52
2023/04/22 00:37:01;;;;;;;1.23;0.87;;;9.50;99.90;;;;;;5034628;28;20466;-51
2023/04/22 00:39:28;;;;;;;1.30;1.03;;;9.50;99.90;;;;;;5034545;28;20570;-52
2023/04/22 00:41:55;;;;;;;2.23;0.80;;;9.50;99.90;;;;;;5034632;28;20943;-51
2023/04/22 00:44:25;;;;;;;1.30;0.90;;;9.40;99.90;;;;;;5034366;28;20537;-52
2023/04/22 00:46:52;;;;;;;1.13;1.00;;;9.40;99.90;;;;;;5034132;28;20565;-52
2023/04/22 00:49:20;;;;;;;1.30;0.90;;;9.30;99.90;;;;;;5034473;28;20862;-51
2023/04/22 00:51:47;;;;;;;1.30;1.00;;;9.40;99.90;;;;;;5034530;28;20445;-51
2023/04/22 00:54:14;;;;;;;1.43;0.97;;;9.50;99.90;;;;;;5034287;28;20486;-51
2023/04/22 00:56:41;;;;;;;1.70;1.10;;;9.50;99.90;;;;;;5033945;28;20533;-52
2023/04/22 00:59:09;;;;;;;1.37;1.13;;;9.50;99.90;;;;;;5033637;28;20529;-51
2023/04/22 01:01:38;;;;;;;2.63;1.20;;;9.50;99.90;;;;;;5034159;28;20819;-51
2023/04/22 01:04:05;;;;;;;1.77;1.00;;;9.30;99.90;;;;;;5033617;28;20546;-52
2023/04/22 01:06:34;;;;;;;1.83;1.13;;;9.20;99.90;;;;;;5034083;28;20497;-51
2023/04/22 01:09:01;;;;;;;3.00;1.20;;;8.90;99.90;;;;;;5034721;28;20449;-51
2023/04/22 01:11:28;;;;;;;1.67;1.30;;;9.10;99.90;;;;;;5034008;28;20873;-51
2023/04/22 01:13:55;;;;;;;1.30;1.00;;;9.10;99.90;;;;;;5033642;28;20541;-51
2023/04/22 01:16:22;;;;;;;1.57;1.20;;;9.00;99.90;;;;;;5033962;28;20550;-53
2023/04/22 01:18:51;;;;;;;1.37;1.10;;;9.10;99.90;;;;;;5032624;28;20958;-52
2023/04/22 01:21:19;;;;;;;2.27;1.20;;;9.10;99.90;;;;;;5033689;28;20905;-52
2023/04/22 01:23:47;;;;;;;1.27;0.83;;;9.10;99.90;;;;;;5032852;28;21047;-51
2023/04/22 01:26:15;;;;;;;1.90;1.13;;;8.90;99.90;;;;;;5033989;28;20542;-51
2023/04/22 01:28:42;;;;;;;2.07;1.40;;;8.60;99.90;;;;;;5033668;28;20540;-51
2023/04/22 01:31:09;;;;;;;2.20;1.27;;;8.40;99.90;;;;;;5033298;28;20997;-51
2023/04/22 01:33:36;;;;;;;2.57;1.00;;;8.50;99.90;;;;;;5033294;28;20462;-50
2023/04/22 01:36:03;;;;;;;1.33;1.13;;;8.80;99.90;;;;;;5033013;28;20442;-51
2023/04/22 01:38:32;;;;;;;1.50;1.03;;;8.90;99.90;;;;;;5033178;28;20529;-50
2023/04/22 01:41:01;;;;;;;2.70;1.03;;;8.90;99.90;;;;;;5033027;28;20459;-51
2023/04/22 01:43:29;;;;;;;1.33;1.00;;;8.90;99.90;;;;;;5033251;28;20885;-50
2023/04/22 01:45:56;;;;;;;1.53;1.20;;;8.90;99.90;;;;;;5033014;28;20890;-51
2023/04/22 01:48:23;;;;;;;4.37;1.23;;;9.10;99.90;;;;;;5033151;28;20580;-50
2023/04/22 01:50:50;;;;;;;1.73;1.30;;;8.90;99.90;;;;;;5033249;28;20541;-51
2023/04/22 01:53:17;;;;;;;1.43;1.17;;;8.70;99.90;;;;;;5032486;28;20899;-52
2023/04/22 01:55:44;;;;;;;2.00;1.20;;;8.70;99.90;;;;;;5033062;28;20493;-52
2023/04/22 01:58:13;;;;;;;1.30;1.00;;;8.80;99.90;;;;;;5032385;28;20486;-50
2023/04/22 02:00:40;;;;;;;1.30;1.00;;;8.80;99.90;;;;;;5033284;28;20529;-50
2023/04/22 02:03:06;;;;;;;1.53;1.10;;;8.90;99.90;;;;;;5032951;28;20901;-50
2023/04/22 02:05:33;;;;;;;2.43;1.70;;;8.90;99.90;;;;;;5033095;28;20518;-50
2023/04/22 02:08:00;;;;;;;2.90;1.20;;;9.00;99.90;;;;;;5032558;28;20585;-52
2023/04/22 02:10:27;;;;;;;3.00;2.27;;;8.90;99.90;;;;;;5032499;28;20486;-51
2023/04/22 02:12:54;;;;;;;5.50;3.73;;;8.80;99.90;;;;;;5032858;28;20474;-51
2023/04/22 02:15:22;;;;;;;2.37;1.57;;;8.40;99.90;;;;;;5032804;28;20504;-51
2023/04/22 02:17:49;;;;;;;1.20;0.90;;;8.40;99.90;;;;;;5032022;28;20497;-51
2023/04/22 02:20:16;;;;;;;1.53;1.20;;;8.40;99.90;;;;;;5031498;28;20439;-52
2023/04/22 02:22:44;;;;;;;1.30;0.97;;;8.50;99.90;;;;;;5031024;28;20489;-52
2023/04/22 02:25:12;;;;;;;1.57;1.10;;;8.60;99.90;;;;;;5031257;28;20478;-53
2023/04/22 02:27:39;;;;;;;1.57;1.20;;;8.50;99.90;;;;;;5030682;28;21139;-51
2023/04/22 02:30:08;;;;;;;1.87;1.20;;;8.60;99.90;;;;;;5030845;28;20475;-51
2023/04/22 02:32:37;;;;;;;1.30;0.97;;;8.40;99.90;;;;;;5030672;28;20466;-50
2023/04/22 02:35:05;;;;;;;1.63;1.00;;;8.40;99.90;;;;;;5032159;28;20450;-51
2023/04/22 02:37:32;;;;;;;1.47;1.20;;;8.30;99.90;;;;;;5032725;28;20470;-51
2023/04/22 02:39:59;;;;;;;1.20;0.80;;;8.30;99.90;;;;;;5032945;28;21012;-51
2023/04/22 02:42:26;;;;;;;1.83;0.90;;;8.40;99.90;;;;;;5032697;28;20473;-53
2023/04/22 02:44:53;;;;;;;1.20;0.83;;;8.30;99.90;;;;;;5032577;28;20537;-51
2023/04/22 02:47:21;;;;;;;2.63;1.20;;;8.30;99.90;;;;;;5032521;28;20481;-50
2023/04/22 02:49:50;;;;;;;1.63;0.90;;;8.20;99.90;;;;;;5032595;28;20537;-51
2023/04/22 02:52:16;;;;;;;2.03;1.13;;;8.00;99.90;;;;;;5032123;28;20463;-51
2023/04/22 02:54:43;;;;;;;1.63;1.20;;;8.10;99.90;;;;;;5032514;28;20438;-51
2023/04/22 02:57:10;;;;;;;1.83;1.10;;;8.30;99.90;;;;;;5032348;28;20558;-51
2023/04/22 02:59:37;;;;;;;1.10;0.90;;;8.30;99.90;;;;;;5031881;28;20946;-50
2023/04/22 03:02:04;;;;;;;1.63;1.17;;;8.30;99.90;;;;;;5032864;28;20462;-51
2023/04/22 03:04:32;;;;;;;2.80;1.10;;;8.20;99.90;;;;;;5032907;28;20474;-51
2023/04/22 03:07:00;;;;;;;1.90;1.30;;;8.30;99.90;;;;;;5032630;28;20819;-50
2023/04/22 03:09:27;;;;;;;1.50;1.13;;;8.20;99.90;;;;;;5032770;28;20485;-51
2023/04/22 03:11:55;;;;;;;1.90;1.10;;;8.20;99.90;;;;;;5032131;28;20509;-50
2023/04/22 03:14:22;;;;;;;1.90;1.10;;;8.10;99.90;;;;;;5032461;28;20500;-50
2023/04/22 03:16:49;;;;;;;1.50;0.97;;;8.10;99.90;;;;;;5032099;28;20525;-50
2023/04/22 03:19:16;;;;;;;1.60;0.93;;;8.30;99.90;;;;;;5031740;28;20500;-52
2023/04/22 03:21:43;;;;;;;1.70;1.10;;;8.30;99.90;;;;;;5032122;28;20439;-52
2023/04/22 03:24:11;;;;;;;1.80;1.30;;;8.30;99.90;;;;;;5032088;28;20533;-52
2023/04/22 03:26:38;;;;;;;1.30;1.00;;;8.40;99.90;;;;;;5032248;28;20473;-52
2023/04/22 03:29:06;;;;;;;1.70;1.00;;;8.20;99.90;;;;;;5032709;28;20481;-51
2023/04/22 03:31:33;;;;;;;1.20;1.00;;;8.10;99.90;;;;;;5032741;28;20447;-51
2023/04/22 03:34:00;;;;;;;1.50;1.00;;;8.10;99.90;;;;;;5032490;28;20529;-50
2023/04/22 03:36:27;;;;;;;2.10;1.20;;;8.00;99.90;;;;;;5033072;28;20443;-51
2023/04/22 03:38:54;;;;;;;1.23;1.10;;;7.90;99.90;;;;;;5032816;28;20481;-51
2023/04/22 03:41:25;;;;;;;1.43;1.10;;;8.00;99.90;;;;;;5032565;28;20509;-50
2023/04/22 03:43:52;;;;;;;1.93;1.13;;;7.80;99.90;;;;;;5032944;28;20977;-50
2023/04/22 03:46:19;;;;;;;2.13;1.10;;;7.80;99.90;;;;;;5032721;28;21071;-50
2023/04/22 03:48:46;;;;;;;2.13;1.20;;;7.80;99.90;;;;;;5032448;28;20474;-51
2023/04/22 03:51:12;;;;;;;1.80;1.10;;;7.80;99.90;;;;;;5033096;28;20899;-50
2023/04/22 03:53:39;;;;;;;1.20;1.10;;;7.70;99.90;;;;;;5032691;28;20545;-53
2023/04/22 03:56:06;;;;;;;1.33;1.10;;;7.80;99.90;;;;;;5032300;28;20462;-51
2023/04/22 03:58:35;;;;;;;1.60;1.10;;;7.70;99.90;;;;;;5032015;28;20474;-52
2023/04/22 04:01:02;;;;;;;1.30;0.80;;;7.80;99.90;;;;;;5032660;28;20452;-54
2023/04/22 04:03:29;;;;;;;1.63;0.90;;;7.90;99.90;;;;;;5032156;28;20541;-52
2023/04/22 04:05:56;;;;;;;1.57;1.30;;;8.10;99.90;;;;;;5032566;28;21017;-54
2023/04/22 04:08:23;;;;;;;1.63;1.20;;;8.00;99.90;;;;;;5031764;28;20517;-52
2023/04/22 04:10:50;;;;;;;1.30;1.07;;;8.10;99.90;;;;;;5032502;28;20571;-50
2023/04/22 04:13:16;;;;;;;2.27;1.17;;;8.00;99.90;;;;;;5031742;28;20497;-53
2023/04/22 04:15:46;;;;;;;1.13;0.83;;;8.00;99.90;;;;;;5032725;28;20570;-52
2023/04/22 04:18:13;;;;;;;1.60;1.30;;;7.90;99.90;;;;;;5031911;28;20435;-50
2023/04/22 04:20:40;;;;;;;1.27;1.10;;;8.00;99.90;;;;;;5032225;28;20449;-50
2023/04/22 04:23:07;;;;;;;1.50;1.10;;;8.10;99.90;;;;;;5032151;28;20499;-50
2023/04/22 04:25:37;;;;;;;1.20;1.03;;;8.10;99.90;;;;;;5032627;28;20443;-53
2023/04/22 04:28:04;;;;;;;1.70;1.27;;;8.10;99.90;;;;;;5032138;28;20509;-52
2023/04/22 04:30:32;;;;;;;1.60;1.30;;;8.00;99.90;;;;;;5032569;28;20500;-52
2023/04/22 04:33:05;;;;;;;2.90;1.43;;;7.90;99.90;;;;;;5032327;28;20849;-51
2023/04/22 04:35:33;;;;;;;1.27;1.13;;;7.90;99.90;;;;;;5032024;28;20858;-50
2023/04/22 04:38:00;;;;;;;1.40;1.20;;;8.00;99.90;;;;;;5032636;28;20997;-50
2023/04/22 04:40:28;;;;;;;2.50;1.20;;;8.00;99.90;;;;;;5032530;28;20530;-50
2023/04/22 04:42:56;;;;;;;1.43;0.90;;;7.80;99.90;;;;;;5032670;28;20557;-51
2023/04/22 04:45:23;;;;;;;4.07;3.67;;;7.70;99.90;;;;;;5032295;28;20980;-49
2023/04/22 04:47:51;;;;;;;4.30;3.27;;;7.80;99.90;;;;;;5032331;28;20478;-50
2023/04/22 04:50:20;;;;;;;3.70;2.57;;;7.90;99.90;;;;;;5032242;28;20663;-51
2023/04/22 04:52:48;;;;;;;2.90;2.60;;;7.90;99.90;;;;;;5032244;28;20490;-52
2023/04/22 04:55:15;;;;;;;2.00;1.80;;;8.00;99.90;;;;;;5031600;28;20969;-51
2023/04/22 04:57:43;;;;;;;3.20;2.37;;;7.90;99.90;;;;;;5032500;28;20524;-51
2023/04/22 05:00:12;;;;;;;1.63;1.53;;;8.00;99.90;;;;;;5034303;28;20485;-50
2023/04/22 05:02:39;;;;;;;2.20;1.43;;;8.00;99.90;;;;;;5035307;28;20498;-51
2023/04/22 05:05:07;;;;;;;1.97;1.30;;;7.90;99.90;;;;;;5036657;28;20469;-51
2023/04/22 05:07:36;;;;;;;1.97;1.20;;;7.80;99.90;;;;;;5036058;28;21094;-50
2023/04/22 05:10:03;;;;;;;3.23;2.20;;;7.60;99.90;;;;;;5035950;28;20521;-51
2023/04/22 05:12:30;;;;;;;2.20;2.00;;;7.40;99.90;;;;;;5036021;28;20541;-51
2023/04/22 05:14:57;;;;;;;2.63;1.70;;;7.60;99.90;;;;;;5036032;28;20493;-54
2023/04/22 05:17:24;;;;;;;2.13;1.67;;;7.70;99.90;;;;;;5035382;28;20447;-50
2023/04/22 05:19:51;;;;;;;1.53;1.30;;;7.70;99.90;;;;;;5033082;28;20469;-53
2023/04/22 05:22:18;;;;;;;1.43;1.20;;;7.90;99.90;;;;;;5033447;28;20545;-50
2023/04/22 05:24:47;;;;;;;1.50;1.20;;;7.90;99.90;;;;;;5034600;28;20534;-50
2023/04/22 05:27:14;;;;;;;2.03;1.37;;;7.80;99.90;;;;;;5034512;28;20549;-52
2023/04/22 05:29:40;;;;;;;2.00;1.50;;;7.90;99.90;;;;;;5035003;28;20506;-50
2023/04/22 05:32:08;;;;;;;3.20;1.93;;;7.90;99.90;;;;;;5035181;28;20541;-50
2023/04/22 05:34:36;;;;;;;1.47;1.37;;;7.80;99.90;;;;;;5034495;28;20446;-51
2023/04/22 05:37:04;;;;;;;1.50;1.40;;;7.80;99.90;;;;;;5033787;28;20438;-51
2023/04/22 05:39:31;;;;;;;1.20;1.07;;;7.70;99.90;;;;;;5034573;28;20514;-51
2023/04/22 05:41:59;;;;;;;1.87;1.53;;;7.90;99.90;;;;;;5034490;28;20965;-51
2023/04/22 05:44:26;;;;;;;2.43;1.50;;;7.80;99.90;;;;;;5034583;28;20442;-51
2023/04/22 05:46:53;;;;;;;2.43;1.90;;;7.60;99.90;;;;;;5031766;28;20442;-53
2023/04/22 05:49:20;;;;;;;1.90;1.23;;;7.40;99.90;;;;;;5033964;28;20561;-51
2023/04/22 05:51:47;;;;;;;2.60;1.40;;;7.50;99.90;;;;;;5033210;28;20529;-54
2023/04/22 05:54:14;;;;;;;1.53;1.43;;;7.80;99.90;;;;;;5030590;28;20431;-51
2023/04/22 05:56:41;;;;;;;2.33;1.50;;;8.00;99.90;;;;;;5033206;28;20478;-52
2023/04/22 05:59:09;;;;;;;4.23;1.93;;;8.10;99.90;;;;;;5033678;28;20441;-53
2023/04/22 06:01:37;;;;;;;2.57;1.70;;;8.20;99.90;;;;;;5032255;28;20450;-52
2023/04/22 06:04:05;;;;;;;3.83;1.23;;;8.00;99.90;;;;;;5034110;28;20490;-53
2023/04/22 06:06:32;;;;;;;2.60;1.47;;;8.00;99.90;;;;;;5034314;28;20442;-53
2023/04/22 06:08:59;;;;;;;1.63;1.30;;;8.10;99.90;;;;;;5034208;28;20564;-52
2023/04/22 06:11:27;;;;;;;2.07;1.30;;;8.20;99.90;;;;;;5033800;28;20853;-52
2023/04/22 06:13:53;;;;;;;1.67;1.43;;;8.20;99.90;;;;;;5030828;28;20616;-52
2023/04/22 06:16:22;;;;;;;1.77;1.00;;;8.30;99.90;;;;;;5032994;28;20523;-51
2023/04/22 06:18:49;;;;;;;1.33;1.07;;;8.30;99.90;;;;;;5032064;28;20514;-51
2023/04/22 06:21:16;;;;;;;4.23;2.10;;;8.40;99.90;;;;;;5032684;28;20478;-51
2023/04/22 06:23:43;;;;;;;2.13;1.60;;;8.40;99.90;;;;;;5032256;28;20896;-52
2023/04/22 06:26:10;;;;;;;3.10;2.50;;;8.50;99.90;;;;;;5032447;28;21014;-51
2023/04/22 06:28:37;;;;;;;4.87;4.37;;;8.50;99.90;;;;;;5032116;28;20514;-51
2023/04/22 06:31:04;;;;;;;3.43;3.13;;;8.50;99.90;;;;;;5032216;28;20864;-52
2023/04/22 06:33:32;;;;;;;5.60;4.40;;;8.60;99.90;;;;;;5032101;28;20886;-52
2023/04/22 06:35:59;;;;;;;5.03;4.53;;;8.70;99.90;;;;;;5030071;28;20885;-53
2023/04/22 06:38:26;;;;;;;3.23;2.93;;;8.80;99.90;;;;;;5031825;28;20925;-51
2023/04/22 06:40:53;;;;;;;7.03;3.77;;;9.00;99.90;;;;;;5031601;28;20529;-53
2023/04/22 06:43:20;;;;;;;7.70;6.10;;;9.10;99.90;;;;;;5031402;28;21008;-52
2023/04/22 06:45:47;;;;;;;3.60;3.30;;;9.10;99.90;;;;;;5031788;28;20532;-51
2023/04/22 06:48:14;;;;;;;3.73;3.43;;;9.10;99.90;;;;;;5031823;28;20557;-52
2023/04/22 06:50:42;;;;;;;4.10;3.70;;;9.20;99.90;;;;;;5031420;28;20446;-52
2023/04/22 06:53:09;;;;;;;3.50;2.90;;;9.30;99.90;;;;;;5030669;28;20555;-52
2023/04/22 06:55:36;;;;;;;5.43;3.07;;;9.40;99.90;;;;;;5031409;28;20508;-51
2023/04/22 06:58:03;;;;;;;15.67;9.90;;;9.50;99.90;;;;;;5030991;28;20470;-51
2023/04/22 07:00:30;;;;;;;11.60;6.60;;;9.60;99.90;;;;;;5031454;28;21022;-52
2023/04/22 07:02:57;;;;;;;8.23;5.73;;;9.70;99.90;;;;;;5031718;28;20498;-51
2023/04/22 07:05:24;;;;;;;6.03;4.50;;;9.80;99.90;;;;;;5031567;28;20527;-52
2023/04/22 07:07:52;;;;;;;5.83;3.80;;;9.90;99.90;;;;;;5030969;28;21005;-52
2023/04/22 07:10:19;;;;;;;4.40;2.93;;;9.90;99.90;;;;;;5044116;22;20530;-55
2023/04/22 07:12:46;;;;;;;4.83;3.23;;;10.00;99.90;;;;;;5031288;28;20475;-55
2023/04/22 07:15:13;;;;;;;5.17;3.80;;;10.10;99.90;;;;;;5031083;28;20521;-55
2023/04/22 07:17:40;;;;;;;3.17;2.87;;;10.10;99.90;;;;;;5030283;28;20526;-54
2023/04/22 07:20:08;;;;;;;2.60;1.87;;;10.20;99.90;;;;;;5020124;28;20492;-55
2023/04/22 07:22:35;;;;;;;2.20;2.00;;;10.30;99.90;;;;;;5011000;28;20486;-54
2023/04/22 07:25:05;;;;;;;2.13;1.93;;;10.50;99.90;;;;;;5011553;28;20975;-54
2023/04/22 07:27:33;;;;;;;2.83;2.07;;;10.50;99.90;;;;;;5011538;28;20453;-54
2023/04/22 07:30:00;;;;;;;2.40;2.20;;;10.60;99.90;;;;;;5010913;28;20512;-54
2023/04/22 07:32:27;;;;;;;12.63;5.67;;;10.70;99.90;;;;;;5011676;28;20451;-55
2023/04/22 07:34:54;;;;;;;3.30;2.60;;;10.80;99.90;;;;;;5011966;28;20552;-55
2023/04/22 07:37:22;;;;;;;2.43;2.23;;;11.20;99.90;;;;;;5010756;28;20770;-54
2023/04/22 07:39:49;;;;;;;2.53;1.57;;;11.20;99.90;;;;;;5011133;28;20463;-55
2023/04/22 07:42:17;;;;;;;3.10;2.40;;;11.20;99.90;;;;;;5011329;28;20489;-55
2023/04/22 07:44:44;;;;;;;1.40;1.00;;;11.20;99.90;;;;;;5011696;28;20477;-55
2023/04/22 07:47:11;;;;;;;1.63;1.07;;;11.20;99.90;;;;;;5011466;28;20472;-55
2023/04/22 07:49:38;;;;;;;1.00;0.60;;;11.20;99.90;;;;;;5004853;28;20486;-55
2023/04/22 07:52:05;;;;;;;1.77;1.00;;;11.20;99.90;;;;;;5005547;28;20538;-56
2023/04/22 07:54:31;;;;;;;1.93;1.40;;;11.40;99.90;;;;;;5008126;28;20478;-55
2023/04/22 07:56:58;;;;;;;1.83;1.30;;;11.40;99.90;;;;;;5006343;28;20532;-55
2023/04/22 07:59:27;;;;;;;1.60;1.20;;;11.60;99.90;;;;;;5003854;28;20461;-55
2023/04/22 08:01:53;;;;;;;1.00;0.70;;;11.70;99.90;;;;;;5003703;28;20974;-56
2023/04/22 08:04:22;;;;;;;1.27;1.00;;;11.70;99.90;;;;;;5007348;28;20489;-55
2023/04/22 08:06:50;;;;;;;1.30;1.00;;;11.70;99.90;;;;;;5007870;28;20533;-55
2023/04/22 08:09:17;;;;;;;1.33;1.20;;;11.80;99.90;;;;;;5006419;28;20485;-55
2023/04/22 08:11:44;;;;;;;1.83;0.90;;;11.90;99.90;;;;;;5007561;28;20497;-55
2023/04/22 08:14:11;;;;;;;1.50;0.93;;;12.10;99.90;;;;;;5007559;28;20848;-55
2023/04/22 08:16:41;;;;;;;1.50;0.90;;;12.20;99.90;;;;;;5007781;28;20488;-53
2023/04/22 08:19:08;;;;;;;1.13;0.83;;;12.20;99.90;;;;;;5006322;28;20473;-56
2023/04/22 08:21:37;;;;;;;1.30;0.90;;;12.20;99.90;;;;;;5006878;28;20446;-56
2023/04/22 08:24:06;;;;;;;1.13;0.80;;;12.30;99.90;;;;;;5007301;28;20862;-55
2023/04/22 08:26:33;;;;;;;2.30;0.97;;;12.40;99.90;;;;;;5007239;28;20485;-56
2023/04/22 08:29:01;;;;;;;1.30;0.90;;;12.60;99.90;;;;;;5006816;28;20585;-55
2023/04/22 08:31:29;;;;;;;1.63;1.20;;;12.90;99.90;;;;;;5000785;28;20507;-54
2023/04/22 08:33:58;;;;;;;1.50;1.30;;;13.10;99.90;;;;;;4993411;28;20444;-57
2023/04/22 08:36:26;;;;;;;1.57;1.20;;;13.20;99.90;;;;;;4992037;28;20443;-54
2023/04/22 08:38:54;;;;;;;1.80;1.60;;;13.20;99.90;;;;;;4991587;28;20440;-56
2023/04/22 08:41:23;;;;;;;2.40;1.17;;;13.20;99.90;;;;;;4992580;28;20447;-55
2023/04/22 08:43:50;;;;;;;1.50;1.00;;;13.40;99.90;;;;;;4993453;28;20443;-55
2023/04/22 08:46:18;;;;;;;1.50;1.00;;;13.50;99.90;;;;;;4994768;28;20530;-54
2023/04/22 08:48:47;;;;;;;1.20;0.90;;;13.40;99.90;;;;;;4993435;28;20452;-57
2023/04/22 08:51:17;;;;;;;2.17;1.33;;;13.30;99.90;;;;;;4993949;28;20534;-55
2023/04/22 08:53:44;;;;;;;1.20;0.87;;;13.50;99.90;;;;;;4993836;28;20486;-55
2023/04/22 08:56:12;;;;;;;2.43;1.00;;;13.60;99.90;;;;;;4993508;28;20443;-55
2023/04/22 08:58:40;;;;;;;1.80;1.10;;;13.50;99.90;;;;;;4993232;28;21028;-55
2023/04/22 09:01:08;;;;;;;1.50;1.00;;;13.70;99.90;;;;;;4993426;28;20479;-54
2023/04/22 09:03:36;;;;;;;1.33;1.00;;;13.70;99.90;;;;;;4993536;28;20498;-56
2023/04/22 09:06:04;;;;;;;1.17;0.80;;;13.70;99.90;;;;;;4993811;28;20451;-55
2023/04/22 09:08:33;;;;;;;1.50;0.87;;;13.70;99.90;;;;;;4994313;28;20444;-55
2023/04/22 09:11:00;;;;;;;1.67;1.27;;;13.60;99.90;;;;;;4994192;28;20575;-55
2023/04/22 09:13:27;;;;;;;1.50;0.90;;;13.80;99.90;;;;;;4994396;28;20519;-56
2023/04/22 09:15:54;;;;;;;2.60;0.97;;;13.90;99.90;;;;;;4994697;28;20534;-55
2023/04/22 09:18:21;;;;;;;1.63;1.23;;;14.00;99.90;;;;;;4993753;28;20524;-56
2023/04/22 09:20:48;;;;;;;1.30;0.70;;;14.10;99.90;;;;;;4994509;28;20500;-55
2023/04/22 09:23:16;;;;;;;1.57;1.20;;;14.00;99.90;;;;;;4993716;28;20525;-56
2023/04/22 09:25:46;;;;;;;1.47;1.10;;;14.20;99.90;;;;;;4993899;28;20973;-55
2023/04/22 09:28:17;;;;;;;1.43;1.20;;;14.30;99.90;;;;;;4993594;28;20440;-54
2023/04/22 09:30:46;;;;;;;1.50;1.00;;;14.40;99.90;;;;;;4993979;28;20487;-53
2023/04/22 09:33:14;;;;;;;1.40;0.83;;;14.40;99.90;;;;;;4994675;28;20609;-55
2023/04/22 09:35:42;;;;;;;1.87;1.30;;;14.30;99.90;;;;;;4994246;28;20854;-54
2023/04/22 09:38:11;;;;;;;1.50;1.10;;;14.50;99.90;;;;;;4993694;28;20527;-55
2023/04/22 09:40:41;;;;;;;2.63;1.10;;;14.70;99.90;;;;;;4993380;28;20507;-57
2023/04/22 09:43:10;;;;;;;2.03;1.13;;;14.80;99.90;;;;;;4993839;28;20531;-56
2023/04/22 09:45:39;;;;;;;1.57;1.10;;;14.80;99.90;;;;;;4993335;28;20500;-55
2023/04/22 09:48:09;;;;;;;1.20;1.03;;;14.80;99.90;;;;;;4993558;28;20943;-55
2023/04/22 09:50:37;;;;;;;1.97;1.20;;;14.80;99.90;;;;;;4993683;28;20484;-55
2023/04/22 09:53:05;;;;;;;1.43;1.27;;;14.80;99.90;;;;;;4994341;28;20528;-54
2023/04/22 09:55:35;;;;;;;1.60;1.10;;;14.90;99.90;;;;;;4994108;28;20520;-55
2023/04/22 09:58:07;;;;;;;1.30;1.10;;;14.90;99.90;;;;;;4993654;28;20951;-54
2023/04/22 10:00:39;;;;;;;2.60;1.20;;;14.90;99.90;;;;;;4993662;28;20469;-54
2023/04/22 10:03:06;;;;;;;1.60;1.10;;;15.20;99.90;;;;;;4993257;28;20464;-54
2023/04/22 10:05:36;;;;;;;1.93;0.90;;;15.20;99.90;;;;;;4993535;28;20454;-54
2023/04/22 10:08:03;;;;;;;2.00;1.60;;;15.50;99.90;;;;;;4993145;28;20449;-55
2023/04/22 10:10:31;;;;;;;1.40;1.10;;;15.60;99.90;;;;;;4993484;28;20483;-55
2023/04/22 10:12:58;;;;;;;1.60;1.20;;;15.80;99.90;;;;;;4992780;28;20444;-54
2023/04/22 10:15:26;;;;;;;1.40;0.97;;;15.70;99.90;;;;;;4993498;28;20444;-54
2023/04/22 10:17:55;;;;;;;3.50;1.60;;;15.40;99.90;;;;;;4992478;28;20532;-54
2023/04/22 10:20:23;;;;;;;1.60;1.10;;;15.50;99.90;;;;;;4992974;28;20523;-55
2023/04/22 10:22:53;;;;;;;1.30;1.00;;;15.60;99.90;;;;;;4992408;28;20940;-55
2023/04/22 10:25:22;;;;;;;1.33;1.00;;;15.60;99.90;;;;;;4993395;28;20444;-54
2023/04/22 10:27:54;;;;;;;2.10;1.47;;;15.60;99.90;;;;;;4992032;28;20440;-54
2023/04/22 10:30:27;;;;;;;1.60;1.30;;;15.40;99.90;;;;;;4993075;28;20488;-55
2023/04/22 10:32:56;;;;;;;1.30;1.07;;;15.50;99.90;;;;;;4993116;28;20448;-55
2023/04/22 10:35:28;;;;;;;1.80;1.33;;;15.70;99.90;;;;;;4993124;28;20542;-55
2023/04/22 10:37:55;;;;;;;1.50;1.13;;;16.00;99.90;;;;;;4992604;28;20787;-55
2023/04/22 10:40:22;;;;;;;1.50;1.10;;;16.30;99.90;;;;;;4992914;28;20678;-55
2023/04/22 10:42:51;;;;;;;1.87;1.37;;;16.10;99.90;;;;;;4992803;28;20444;-55
2023/04/22 10:45:19;;;;;;;2.23;1.10;;;16.00;99.90;;;;;;5012278;28;20495;-54
2023/04/22 10:47:46;;;;;;;1.47;1.13;;;16.00;99.90;;;;;;5012338;28;21001;-55
2023/04/22 10:50:25;;;;;;;2.00;1.00;;;16.20;99.90;;;;;;4993726;28;20512;-55
2023/04/22 10:52:55;;;;;;;1.43;1.03;;;16.20;99.90;;;;;;4990914;28;20440;-54
2023/04/22 10:55:22;;;;;;;1.93;0.93;;;16.40;99.90;;;;;;5009917;28;20551;-55
2023/04/22 10:57:50;;;;;;;1.37;1.10;;;16.50;99.90;;;;;;5010058;28;21022;-54
2023/04/22 11:00:39;;;;;;;1.60;1.10;;;16.70;99.90;;;;;;4992781;28;20805;-55
2023/04/22 11:03:17;;;;;;;1.70;1.20;;;16.60;99.90;;;;;;4990918;28;20459;-55
2023/04/22 11:05:46;;;;;;;1.33;1.23;;;16.90;99.90;;;;;;4991491;28;20448;-55
2023/04/22 11:08:19;;;;;;;1.60;1.00;;;16.80;99.90;;;;;;4990811;28;20529;-54
2023/04/22 11:10:48;;;;;;;2.27;1.03;;;16.90;99.90;;;;;;4991749;28;20489;-54
2023/04/22 11:13:16;;;;;;;1.30;1.00;;;17.00;99.90;;;;;;4991141;28;20981;-54
2023/04/22 11:15:44;;;;;;;1.80;1.07;;;16.80;99.90;;;;;;4992081;28;20477;-55
2023/04/22 11:18:14;;;;;;;2.20;1.00;;;16.80;99.90;;;;;;4990550;28;20936;-55
2023/04/22 11:20:42;;;;;;;1.33;1.00;;;16.80;99.90;;;;;;4992488;28;20492;-54
2023/04/22 11:23:10;;;;;;;1.57;1.10;;;17.10;99.90;;;;;;4991535;28;20451;-55
2023/04/22 11:25:37;;;;;;;1.73;1.10;;;17.40;99.90;;;;;;4992254;28;20474;-55
2023/04/22 11:28:04;;;;;;;1.93;1.10;;;17.40;98.20;;;;;;4991295;28;20477;-54
2023/04/22 11:30:31;;;;;;;2.17;0.97;;;17.60;99.90;;;;;;5009856;28;20521;-55
2023/04/22 11:33:00;;;;;;;1.40;1.00;;;17.80;97.50;;;;;;5009620;28;20858;-54
2023/04/22 11:35:29;;;;;;;1.97;1.10;;;17.70;98.90;;;;;;5010603;28;20473;-54
2023/04/22 11:37:58;;;;;;;1.30;1.00;;;17.50;96.20;;;;;;5011123;28;20450;-55
2023/04/22 11:40:28;;;;;;;1.40;1.17;;;17.80;97.10;;;;;;5010838;28;20574;-55
2023/04/22 11:42:56;;;;;;;1.30;1.07;;;17.60;94.10;;;;;;5010212;28;20518;-55
2023/04/22 11:45:23;;;;;;;1.67;0.73;;;17.80;95.40;;;;;;5009907;28;20827;-55
2023/04/22 11:47:51;;;;;;;1.40;1.10;;;18.00;99.60;;;;;;5009627;28;20886;-56
2023/04/22 11:50:20;;;;;;;1.73;1.20;;;18.10;96.50;;;;;;5009548;28;20509;-54
2023/04/22 11:52:50;;;;;;;2.17;1.10;;;18.50;96.90;;;;;;5010563;28;20449;-54
2023/04/22 11:55:21;;;;;;;1.93;1.30;;;18.40;97.50;;;;;;4995154;28;20474;-55
2023/04/22 11:57:54;;;;;;;1.53;1.00;;;18.40;96.30;;;;;;4991573;28;20491;-55
2023/04/22 12:00:22;;;;;;;1.87;0.90;;;17.90;96.30;;;;;;4991587;28;20550;-55
2023/04/22 12:03:00;;;;;;;1.40;0.87;;;18.50;98.10;;;;;;5000359;28;20489;-56
2023/04/22 12:05:39;;;;;;;2.10;0.93;;;18.40;95.30;;;;;;5010296;28;20999;-55
2023/04/22 12:08:11;;;;;;;1.50;0.90;;;18.20;96.60;;;;;;5010263;28;20469;-55
2023/04/22 12:10:46;;;;;;;1.30;0.90;;;18.10;97.50;;;;;;5008258;28;20577;-55
2023/04/22 12:13:22;;;;;;;1.40;0.83;;;18.10;95.20;;;;;;5011313;28;20549;-55
2023/04/22 12:15:54;;;;;;;2.37;1.73;;;18.10;94.70;;;;;;4991640;28;20447;-56
2023/04/22 12:18:29;;;;;;;1.30;1.03;;;18.20;96.00;;;;;;4990381;28;20537;-54
2023/04/22 12:20:59;;;;;;;2.27;1.43;;;18.10;95.80;;;;;;5010547;28;20539;-55
2023/04/22 12:23:27;;;;;;;1.93;1.40;;;18.20;94.20;;;;;;5009574;28;20452;-54
2023/04/22 12:25:54;;;;;;;4.17;1.27;;;18.60;93.70;;;;;;4991422;28;20451;-57
2023/04/22 12:28:22;;;;;;;1.40;1.00;;;18.60;92.50;;;;;;4989718;28;20501;-55
2023/04/22 12:30:49;;;;;;;2.63;1.03;;;18.80;92.60;;;;;;4989898;28;20896;-55
2023/04/22 12:33:16;;;;;;;1.70;1.30;;;18.40;92.00;;;;;;4989806;28;20474;-54
2023/04/22 12:35:45;;;;;;;2.03;1.37;;;18.80;89.60;;;;;;4989979;28;20528;-55
2023/04/22 12:38:12;;;;;;;2.37;1.40;;;19.30;92.00;;;;;;4990364;28;21016;-56
2023/04/22 12:40:39;;;;;;;2.90;1.30;;;19.30;92.90;;;;;;4991081;28;20901;-55
2023/04/22 12:43:07;;;;;;;2.80;1.73;;;19.00;92.00;;;;;;4990974;28;20556;-55
2023/04/22 12:45:35;;;;;;;1.67;1.30;;;18.90;93.20;;;;;;4991410;28;20455;-55
2023/04/22 12:48:02;;;;;;;4.03;1.50;;;18.80;92.40;;;;;;5007112;28;20494;-54
2023/04/22 12:50:29;;;;;;;3.83;1.60;;;19.50;87.70;;;;;;4995703;28;20511;-56
2023/04/22 12:52:56;;;;;;;1.83;1.37;;;19.20;87.90;;;;;;4991232;28;20546;-54
2023/04/22 12:55:23;;;;;;;1.77;1.20;;;19.00;79.80;;;;;;4991219;28;20524;-55